Time;durP1;ratioP1;P1;durP2;ratioP2;P2;SDS_P1;SDS_P2;PMS_P1;PMS_P2;Temp;Humidity;BMP_temperature;BMP_pressure;BME280_temperature;BME280_humidity;BME280_pressure;Samples;Min_cycle;Max_cycle;Signal;HPM_P1;HPM_P2
2022/12/31 00:01:15;;;;;;;4.18;3.78;;;;;;;8.05;100.00;97891.69;5029318;28;20728;-76
2022/12/31 00:03:41;;;;;;;4.45;4.00;;;;;;;8.06;100.00;97899.38;5027003;28;20032;-77
2022/12/31 00:06:15;;;;;;;4.70;3.72;;;;;;;8.10;100.00;97905.78;5023175;28;20112;-76
2022/12/31 00:08:41;;;;;;;4.38;3.40;;;;;;;8.12;100.00;97916.19;5025495;28;20090;-75
2022/12/31 00:11:06;;;;;;;4.47;3.70;;;;;;;8.15;100.00;97919.13;5024214;28;20029;-77
2022/12/31 00:13:31;;;;;;;4.30;3.90;;;;;;;8.19;100.00;97935.38;5023228;28;20510;-77
2022/12/31 00:16:09;;;;;;;4.72;3.78;;;;;;;8.19;100.00;97928.19;5026848;28;20454;-76
2022/12/31 00:18:34;;;;;;;4.75;4.10;;;;;;;8.18;100.00;97931.09;5028654;28;20113;-75
2022/12/31 00:21:04;;;;;;;3.70;3.22;;;;;;;8.24;100.00;97932.72;5028541;28;20029;-76
2022/12/31 00:23:29;;;;;;;4.57;3.60;;;;;;;8.22;100.00;97933.00;5044844;28;20025;-78
2022/12/31 00:25:54;;;;;;;3.72;3.33;;;;;;;8.27;100.00;97929.59;5026087;28;20086;-75
2022/12/31 00:28:20;;;;;;;5.95;3.17;;;;;;;8.32;100.00;97927.78;5020415;28;20160;-76
2022/12/31 00:30:45;;;;;;;4.78;2.55;;;;;;;8.25;100.00;97921.06;5026307;28;20064;-77
2022/12/31 00:33:10;;;;;;;3.03;2.75;;;;;;;8.22;100.00;97933.00;5031270;28;20069;-75
2022/12/31 00:35:36;;;;;;;3.33;2.83;;;;;;;8.22;100.00;97943.63;5030999;28;20417;-78
2022/12/31 00:38:01;;;;;;;2.92;2.63;;;;;;;8.31;100.00;97946.66;5034098;28;20060;-78
2022/12/31 00:40:28;;;;;;;3.75;2.75;;;;;;;8.27;100.00;97938.38;5013454;28;20491;-76
2022/12/31 00:42:53;;;;;;;2.58;2.38;;;;;;;8.18;100.00;97937.22;5030517;28;20116;-76
2022/12/31 00:45:19;;;;;;;3.35;3.03;;;;;;;8.33;100.00;97931.22;5030337;28;20048;-77
2022/12/31 00:47:44;;;;;;;3.45;2.40;;;;;;;8.27;100.00;97921.63;5033494;28;20034;-77
2022/12/31 00:50:09;;;;;;;3.45;3.15;;;;;;;8.29;100.00;97915.00;5035453;28;20396;-77
2022/12/31 00:52:35;;;;;;;3.03;2.67;;;;;;;8.31;100.00;97914.75;5035471;28;20037;-77
2022/12/31 00:55:00;;;;;;;3.00;2.70;;;;;;;8.27;100.00;97913.66;5031564;28;20053;-75
2022/12/31 00:57:25;;;;;;;2.92;2.72;;;;;;;8.28;100.00;97920.56;5031507;28;20454;-77
2022/12/31 00:59:51;;;;;;;2.95;2.60;;;;;;;8.31;100.00;97909.44;5030793;28;20025;-74
2022/12/31 01:02:16;;;;;;;3.53;3.22;;;;;;;8.29;100.00;97922.19;5029758;28;20033;-74
2022/12/31 01:04:42;;;;;;;2.95;2.65;;;;;;;8.27;100.00;97930.41;5031994;28;20029;-76
2022/12/31 01:07:07;;;;;;;4.70;2.60;;;;;;;8.24;100.00;97916.78;5031744;28;20505;-74
2022/12/31 01:09:32;;;;;;;2.63;2.42;;;;;;;8.31;100.00;97917.41;5029358;28;20041;-75
2022/12/31 01:11:58;;;;;;;3.17;2.88;;;;;;;8.33;100.00;97923.25;5030718;28;20033;-74
2022/12/31 01:14:23;;;;;;;2.75;2.40;;;;;;;8.29;100.00;97936.28;5030452;28;20509;-76
2022/12/31 01:16:51;;;;;;;3.60;3.08;;;;;;;8.39;100.00;97943.50;5034037;28;20512;-75
2022/12/31 01:19:24;;;;;;;4.10;3.33;;;;;;;8.36;100.00;97930.72;5033019;28;20028;-76
2022/12/31 01:21:50;;;;;;;2.42;2.22;;;;;;;8.41;100.00;97936.06;5028939;28;20033;-76
2022/12/31 01:24:18;;;;;;;3.03;2.28;;;;;;;8.47;100.00;97936.91;5025575;28;20450;-75
2022/12/31 01:26:44;;;;;;;3.72;2.70;;;;;;;8.45;100.00;97928.41;5032709;28;20028;-76
2022/12/31 01:29:09;;;;;;;3.03;2.35;;;;;;;8.51;100.00;97919.38;5031163;28;20144;-76
2022/12/31 01:31:36;;;;;;;3.95;2.72;;;;;;;8.56;100.00;97922.06;5032650;28;20033;-77
2022/12/31 01:34:02;;;;;;;2.17;1.92;;;;;;;8.59;100.00;97938.31;5032333;28;20037;-77
2022/12/31 01:36:30;;;;;;;3.85;2.15;;;;;;;8.60;100.00;97937.25;5032174;28;20033;-77
2022/12/31 01:38:58;;;;;;;11.10;2.33;;;;;;;8.62;100.00;97934.34;5032389;28;20108;-78
2022/12/31 01:41:36;;;;;;;2.05;1.70;;;;;;;8.62;100.00;97929.81;5030332;28;20079;-76
2022/12/31 01:44:24;;;;;;;1.85;1.67;;;;;;;8.64;100.00;97940.19;5030119;28;20029;-75
2022/12/31 01:46:57;;;;;;;1.85;1.50;;;;;;;8.74;100.00;97930.41;5020616;28;20056;-74
2022/12/31 01:49:54;;;;;;;1.25;1.15;;;;;;;8.64;100.00;97930.38;5026794;28;20043;-76
2022/12/31 01:52:19;;;;;;;;;;;;;;;8.67;100.00;97929.81;5032564;28;20045;-74
2022/12/31 01:54:59;;;;;;;3.73;1.50;;;;;;;8.75;100.00;97932.03;5028903;28;19967;-76
2022/12/31 01:57:25;;;;;;;1.05;1.05;;;;;;;8.76;100.00;97938.94;5029599;28;20037;-74
2022/12/31 01:59:52;;;;;;;1.30;1.20;;;;;;;8.80;100.00;97929.34;5048512;28;20501;-74
2022/12/31 02:02:17;;;;;;;0.73;0.73;;;;;;;8.72;100.00;97926.41;5032464;28;20033;-77
2022/12/31 02:04:43;;;;;;;0.98;0.98;;;;;;;8.81;100.00;97919.53;5031313;28;20025;-76
2022/12/31 02:07:10;;;;;;;0.88;0.88;;;;;;;8.88;100.00;97928.88;5031808;28;20522;-76
2022/12/31 02:09:37;;;;;;;0.90;0.88;;;;;;;8.84;100.00;97935.78;5030259;28;20045;-76
2022/12/31 02:12:03;;;;;;;1.05;0.95;;;;;;;8.85;100.00;97941.88;5031428;28;20029;-78
2022/12/31 02:14:32;;;;;;;3.65;1.02;;;;;;;8.91;100.00;97932.91;5033156;28;20517;-76
2022/12/31 02:17:09;;;;;;;1.73;1.17;;;;;;;8.92;100.00;97943.28;5029004;28;20033;-76
2022/12/31 02:19:50;;;;;;;2.47;1.00;;;;;;;8.87;100.00;97937.91;5033477;28;20108;-75
2022/12/31 02:23:07;;;;;;;2.28;0.90;;;;;;;8.90;100.00;97926.75;5028114;28;20445;-75
2022/12/31 02:26:06;;;;;;;0.93;0.93;;;;;;;8.96;100.00;97930.22;4996071;28;20041;-78
2022/12/31 02:28:50;;;;;;;0.55;0.52;;;;;;;8.95;100.00;97929.44;5029414;28;20090;-77
2022/12/31 02:31:23;;;;;;;0.95;0.95;;;;;;;8.94;100.00;97909.22;5026580;28;20035;-76
2022/12/31 02:33:57;;;;;;;0.80;0.60;;;;;;;8.95;100.00;97912.69;5028655;28;20087;-76
2022/12/31 02:36:27;;;;;;;3.67;0.90;;;;;;;8.95;100.00;97913.47;5028368;28;20036;-77
2022/12/31 02:38:54;;;;;;;0.55;0.50;;;;;;;8.99;100.00;97885.28;5025151;28;20135;-76
2022/12/31 02:44:23;;;;;;;2.83;0.60;;;;;;;8.99;100.00;97885.28;5030095;28;20185;-77
2022/12/31 02:47:26;;;;;;;0.80;0.80;;;;;;;9.08;100.00;97893.56;5025007;28;20040;-76
2022/12/31 02:50:20;;;;;;;1.15;0.93;;;;;;;9.12;100.00;97867.22;5029079;28;20033;-77
2022/12/31 02:53:29;;;;;;;0.90;0.90;;;;;;;9.09;100.00;97873.06;5031657;28;20453;-76
2022/12/31 02:56:18;;;;;;;0.93;0.77;;;;;;;9.07;100.00;97874.13;5008776;28;20124;-77
2022/12/31 03:04:35;;;;;;;0.55;0.52;;;;;;;9.18;100.00;97866.97;5028700;28;20052;-76
2022/12/31 03:07:12;;;;;;;0.60;0.60;;;;;;;9.25;100.00;97880.00;5025998;28;20061;-76
2022/12/31 03:09:38;;;;;;;1.25;0.65;;;;;;;9.19;100.00;97873.91;5029344;28;20037;-74
2022/12/31 03:14:50;;;;;;;0.85;0.82;;;;;;;9.24;100.00;97870.44;5027062;28;20442;-76
2022/12/31 03:17:16;;;;;;;0.40;0.40;;;;;;;9.24;100.00;97868.56;5026814;28;20033;-75
2022/12/31 03:22:26;;;;;;;1.20;0.80;;;;;;;9.27;100.00;97875.22;5030535;28;20032;-75
2022/12/31 03:27:35;;;;;;;0.73;0.73;;;;;;;9.27;100.00;97862.72;5028162;28;20048;-75
2022/12/31 03:30:01;;;;;;;0.85;0.70;;;;;;;9.32;100.00;97868.06;5024871;28;20033;-75
2022/12/31 03:32:26;;;;;;;0.95;0.80;;;;;;;9.31;100.00;97866.44;5009430;28;20032;-75
2022/12/31 03:34:51;;;;;;;0.68;0.68;;;;;;;9.34;100.00;97867.78;5025601;28;20517;-76
2022/12/31 03:37:17;;;;;;;0.50;0.50;;;;;;;9.34;100.00;97875.78;5034385;28;20107;-77
2022/12/31 03:39:42;;;;;;;0.60;0.60;;;;;;;9.34;100.00;97871.25;5030903;28;20051;-79
2022/12/31 03:42:07;;;;;;;0.68;0.60;;;;;;;9.41;100.00;97865.69;5029328;28;20129;-77
2022/12/31 03:44:33;;;;;;;1.05;0.85;;;;;;;9.39;100.00;97868.59;5030007;28;20056;-77
2022/12/31 03:46:58;;;;;;;0.95;0.95;;;;;;;9.47;100.00;97856.63;5027515;28;20041;-75
2022/12/31 03:49:23;;;;;;;0.60;0.60;;;;;;;9.40;100.00;97864.06;5027817;28;20029;-76
2022/12/31 03:51:49;;;;;;;0.68;0.68;;;;;;;9.42;100.00;97857.41;5029032;28;20025;-76
2022/12/31 03:54:14;;;;;;;0.60;0.60;;;;;;;9.45;100.00;97861.41;5031064;28;20486;-76
2022/12/31 03:56:47;;;;;;;0.70;0.60;;;;;;;9.47;100.00;97864.59;5046395;28;20032;-77
2022/12/31 03:59:13;;;;;;;1.33;1.00;;;;;;;9.51;100.00;97852.34;5013480;28;20034;-75
2022/12/31 04:01:38;;;;;;;0.98;0.88;;;;;;;9.46;100.00;97863.00;5026303;28;20035;-75
2022/12/31 04:04:04;;;;;;;1.00;1.00;;;;;;;9.45;100.00;97850.75;5035682;28;20091;-75
2022/12/31 04:06:29;;;;;;;1.17;1.10;;;;;;;9.49;100.00;97855.28;5025188;28;20112;-76
2022/12/31 04:08:54;;;;;;;1.02;1.02;;;;;;;9.52;100.00;97861.97;5030969;28;20160;-75
2022/12/31 04:11:20;;;;;;;1.20;1.10;;;;;;;9.50;100.00;97867.53;5036401;28;20021;-76
2022/12/31 04:13:45;;;;;;;2.38;0.90;;;;;;;9.53;100.00;97863.53;5029940;28;20067;-75
2022/12/31 04:16:10;;;;;;;0.75;0.75;;;;;;;9.52;100.00;97851.31;5026242;28;20040;-76
2022/12/31 04:18:35;;;;;;;1.77;0.80;;;;;;;9.52;100.00;97851.31;5024938;28;20036;-77
2022/12/31 04:21:02;;;;;;;7.78;1.00;;;;;;;9.48;100.00;97847.56;5009991;28;20038;-76
2022/12/31 04:23:28;;;;;;;0.95;0.95;;;;;;;9.46;100.00;97844.34;5025731;28;20061;-77
2022/12/31 04:25:53;;;;;;;0.98;0.98;;;;;;;9.46;100.00;97847.00;5029217;28;20064;-77
2022/12/31 04:28:18;;;;;;;0.75;0.75;;;;;;;9.54;100.00;97849.16;5026779;28;20470;-77
2022/12/31 04:30:44;;;;;;;1.85;0.75;;;;;;;9.51;100.00;97847.84;5025045;28;20498;-75
2022/12/31 04:33:09;;;;;;;1.25;1.15;;;;;;;9.50;100.00;97848.88;5026443;28;20483;-75
2022/12/31 04:35:34;;;;;;;0.80;0.60;;;;;;;9.48;100.00;97818.28;5026328;28;20552;-75
2022/12/31 04:38:00;;;;;;;0.50;0.50;;;;;;;9.56;100.00;97839.03;5025193;28;20053;-76
2022/12/31 04:40:25;;;;;;;1.15;0.57;;;;;;;9.52;100.00;97851.31;5028424;28;20048;-75
2022/12/31 04:42:50;;;;;;;1.30;0.70;;;;;;;9.55;100.00;97850.75;5031774;28;20055;-77
2022/12/31 04:45:16;;;;;;;0.57;0.50;;;;;;;9.54;100.00;97843.84;5030476;28;20404;-75
2022/12/31 04:47:41;;;;;;;0.82;0.30;;;;;;;9.48;100.00;97845.69;5026060;28;20402;-75
2022/12/31 04:50:07;;;;;;;0.63;0.63;;;;;;;9.51;100.00;97844.38;5025495;28;20469;-75
2022/12/31 04:52:32;;;;;;;1.90;0.40;;;;;;;9.51;100.00;97841.69;5026589;28;20108;-77
2022/12/31 04:54:57;;;;;;;0.47;0.47;;;;;;;9.56;100.00;97847.84;5036934;28;20033;-76
2022/12/31 04:57:23;;;;;;;0.88;0.60;;;;;;;9.58;100.00;97848.38;5026826;28;20080;-75
2022/12/31 04:59:48;;;;;;;1.20;0.60;;;;;;;9.61;100.00;97852.38;5023293;28;20031;-75
2022/12/31 05:02:14;;;;;;;0.50;0.35;;;;;;;9.55;100.00;97818.78;5029959;28;20030;-78
2022/12/31 05:04:39;;;;;;;0.40;0.40;;;;;;;9.55;100.00;97834.78;5027106;28;20064;-75
2022/12/31 05:07:04;;;;;;;0.73;0.50;;;;;;;9.57;100.00;97840.63;5024987;28;20037;-76
2022/12/31 05:09:30;;;;;;;0.43;0.43;;;;;;;9.61;100.00;97842.50;5027011;28;20057;-76
2022/12/31 05:11:56;;;;;;;2.65;0.40;;;;;;;9.62;100.00;97845.97;5030147;28;20468;-77
2022/12/31 05:14:21;;;;;;;0.47;0.30;;;;;;;9.62;100.00;97840.63;5008136;28;20060;-77
2022/12/31 05:16:46;;;;;;;0.75;0.70;;;;;;;9.72;100.00;97827.31;5031881;28;20029;-77
2022/12/31 05:19:12;;;;;;;0.40;0.40;;;;;;;9.69;100.00;97833.19;5031046;28;20415;-75
2022/12/31 05:21:37;;;;;;;0.30;0.30;;;;;;;9.63;100.00;97848.34;5027556;28;20029;-75
2022/12/31 05:24:03;;;;;;;0.40;0.40;;;;;;;9.63;100.00;97836.91;5030156;28;20394;-77
2022/12/31 05:26:28;;;;;;;1.25;0.80;;;;;;;9.74;100.00;97851.84;5023003;28;20038;-74
2022/12/31 05:28:55;;;;;;;1.30;0.60;;;;;;;9.70;100.00;97848.09;5030956;28;20045;-75
2022/12/31 05:31:21;;;;;;;1.77;0.60;;;;;;;9.69;100.00;97834.00;5027794;28;20029;-76
2022/12/31 05:33:46;;;;;;;0.40;0.40;;;;;;;9.64;100.00;97835.84;5029829;28;20417;-76
2022/12/31 05:36:12;;;;;;;0.60;0.60;;;;;;;9.75;100.00;97851.56;5029027;28;20036;-76
2022/12/31 05:38:37;;;;;;;0.30;0.30;;;;;;;9.72;100.00;97859.28;5028454;28;20028;-75
2022/12/31 05:41:05;;;;;;;0.95;0.60;;;;;;;9.70;100.00;97843.56;5027721;28;20025;-75
2022/12/31 05:43:31;;;;;;;0.40;0.40;;;;;;;9.73;100.00;97856.38;5034045;28;20030;-76
2022/12/31 05:45:59;;;;;;;0.60;0.60;;;;;;;9.76;100.00;97876.34;5032109;28;20044;-76
2022/12/31 05:48:25;;;;;;;0.40;0.40;;;;;;;9.77;100.00;97875.28;5032933;28;20052;-78
2022/12/31 05:50:50;;;;;;;0.47;0.47;;;;;;;9.76;100.00;97877.13;5035531;28;20025;-78
2022/12/31 05:53:15;;;;;;;0.70;0.40;;;;;;;9.72;100.00;97862.75;5039562;28;20109;-77
2022/12/31 05:55:41;;;;;;;3.17;0.50;;;;;;;9.75;100.00;97878.22;5032285;28;20029;-77
2022/12/31 05:58:06;;;;;;;0.60;0.60;;;;;;;9.74;100.00;97884.59;5032350;28;20033;-77
2022/12/31 06:00:32;;;;;;;0.50;0.35;;;;;;;9.75;100.00;97888.88;5039359;28;20021;-76
2022/12/31 06:02:57;;;;;;;0.40;0.40;;;;;;;9.71;100.00;97884.34;5031537;28;20041;-77
2022/12/31 06:05:22;;;;;;;2.60;0.63;;;;;;;9.80;100.00;97885.41;5033016;28;20041;-77
2022/12/31 06:07:48;;;;;;;0.65;0.65;;;;;;;9.85;100.00;97888.06;5031435;28;20470;-76
2022/12/31 06:10:13;;;;;;;0.60;0.60;;;;;;;9.86;100.00;97884.34;5036818;28;20432;-76
2022/12/31 06:12:38;;;;;;;1.35;0.75;;;;;;;9.91;100.00;97902.19;5030176;28;20623;-77
2022/12/31 06:15:04;;;;;;;0.73;0.73;;;;;;;9.89;100.00;97885.69;5029200;28;20037;-74
2022/12/31 06:17:31;;;;;;;0.80;0.80;;;;;;;9.93;100.00;97890.22;5029054;28;20029;-76
2022/12/31 06:19:57;;;;;;;0.77;0.68;;;;;;;9.93;100.00;97887.53;5026131;28;20081;-76
2022/12/31 06:22:22;;;;;;;0.63;0.63;;;;;;;9.91;100.00;97891.53;5031378;28;20025;-76
2022/12/31 06:24:48;;;;;;;0.73;0.55;;;;;;;9.87;100.00;97896.63;5031199;28;20044;-74
2022/12/31 06:27:15;;;;;;;1.15;0.65;;;;;;;9.85;100.00;97877.41;5033440;28;20035;-75
2022/12/31 06:29:40;;;;;;;1.95;0.93;;;;;;;9.84;100.00;97897.13;5029666;28;20050;-75
2022/12/31 06:32:06;;;;;;;0.75;0.75;;;;;;;9.91;100.00;97897.66;5024934;28;20038;-76
2022/12/31 06:34:31;;;;;;;1.45;0.98;;;;;;;9.93;100.00;97884.88;5030790;28;20370;-76
2022/12/31 06:36:57;;;;;;;3.28;0.90;;;;;;;9.90;100.00;97920.03;5025396;28;20124;-76
2022/12/31 06:39:22;;;;;;;1.55;0.85;;;;;;;9.93;100.00;97906.19;5027612;28;20037;-75
2022/12/31 06:41:48;;;;;;;0.65;0.65;;;;;;;9.87;100.00;97909.94;5028867;28;20332;-76
2022/12/31 06:44:13;;;;;;;1.65;1.00;;;;;;;9.90;100.00;97920.03;5027250;28;20043;-74
2022/12/31 06:46:39;;;;;;;1.08;0.88;;;;;;;9.89;100.00;97926.47;5023587;28;20056;-76
2022/12/31 06:49:04;;;;;;;0.73;0.65;;;;;;;9.73;100.00;97891.00;5027990;28;20397;-75
2022/12/31 06:51:29;;;;;;;1.15;1.05;;;;;;;10.03;100.00;97914.19;5026898;28;20677;-74
2022/12/31 06:53:55;;;;;;;3.58;1.17;;;;;;;10.02;100.00;97915.25;5029582;28;20171;-77
2022/12/31 06:56:24;;;;;;;0.85;0.82;;;;;;;10.00;100.00;97921.94;5031002;28;20052;-77
2022/12/31 06:58:50;;;;;;;0.95;0.95;;;;;;;10.04;100.00;97937.13;5032248;28;20126;-76
2022/12/31 07:02:02;;;;;;;1.85;0.90;;;;;;;10.07;100.00;97927.78;5026637;28;20026;-75
2022/12/31 07:04:48;;;;;;;3.08;0.80;;;;;;;10.12;100.00;97925.13;4964213;28;20029;-77
2022/12/31 07:07:31;;;;;;;1.15;1.05;;;;;;;10.13;100.00;97940.09;5022841;28;20087;-74
2022/12/31 07:10:11;;;;;;;2.55;1.40;;;;;;;10.16;100.00;97944.84;5027491;28;20040;-75
2022/12/31 07:13:07;;;;;;;1.70;1.13;;;;;;;10.22;100.00;97949.16;5030493;28;20049;-73
2022/12/31 07:15:54;;;;;;;5.47;1.00;;;;;;;10.15;100.00;97961.94;5029417;28;20104;-74
2022/12/31 07:18:34;;;;;;;1.88;1.02;;;;;;;10.13;100.00;97954.22;5025317;28;20044;-76
2022/12/31 07:21:00;;;;;;;1.13;0.93;;;;;;;10.15;100.00;97944.09;5027741;28;20068;-75
2022/12/31 07:23:25;;;;;;;2.33;1.13;;;;;;;10.12;100.00;97947.28;5031469;28;20075;-75
2022/12/31 07:26:34;;;;;;;2.35;1.00;;;;;;;10.20;100.00;97956.63;5027376;28;20037;-75
2022/12/31 07:29:07;;;;;;;1.60;1.17;;;;;;;10.18;100.00;97946.19;5027494;28;20033;-75
2022/12/31 07:32:01;;;;;;;1.33;1.10;;;;;;;10.21;100.00;97958.19;5025723;28;20383;-73
2022/12/31 07:34:48;;;;;;;2.13;1.05;;;;;;;10.23;100.00;97954.19;5017769;28;20037;-74
2022/12/31 07:37:36;;;;;;;1.33;1.17;;;;;;;10.22;100.00;97965.91;5025507;28;20031;-74
2022/12/31 07:40:22;;;;;;;1.38;1.20;;;;;;;10.25;100.00;97977.94;5019276;28;20045;-74
2022/12/31 07:43:07;;;;;;;1.52;1.25;;;;;;;10.27;100.00;97975.78;5029712;28;20025;-74
2022/12/31 07:45:38;;;;;;;2.90;2.00;;;;;;;10.17;100.00;97984.63;5024007;28;20079;-74
2022/12/31 07:48:13;;;;;;;2.50;1.20;;;;;;;10.24;100.00;97987.78;5031885;28;20038;-75
2022/12/31 07:50:38;;;;;;;0.75;0.75;;;;;;;10.26;100.00;98001.69;5030168;28;20505;-75
2022/12/31 07:53:04;;;;;;;1.02;0.98;;;;;;;10.27;100.00;97997.13;5027319;28;20026;-72
2022/12/31 07:55:29;;;;;;;2.95;1.10;;;;;;;10.30;100.00;98001.94;5030013;28;20056;-72
2022/12/31 07:58:03;;;;;;;2.08;1.02;;;;;;;10.35;100.00;98007.28;5025279;28;20033;-72
2022/12/31 08:00:29;;;;;;;0.77;0.77;;;;;;;10.37;100.00;98016.63;5028121;28;20025;-73
2022/12/31 08:03:41;;;;;;;1.58;1.45;;;;;;;10.42;100.00;98002.44;5031119;28;20410;-72
2022/12/31 08:06:18;;;;;;;4.90;0.98;;;;;;;10.37;100.00;98024.63;5025637;28;20045;-74
2022/12/31 08:09:13;;;;;;;2.05;1.15;;;;;;;10.43;100.00;98002.22;5022815;28;20036;-73
2022/12/31 08:11:57;;;;;;;2.10;1.13;;;;;;;10.43;100.00;98007.53;5024983;28;20068;-73
2022/12/31 08:14:23;;;;;;;2.50;1.52;;;;;;;10.38;100.00;98020.06;5026831;28;20029;-73
2022/12/31 08:16:49;;;;;;;2.53;1.00;;;;;;;10.41;100.00;98036.34;5025317;28;20068;-73
2022/12/31 08:19:23;;;;;;;1.30;1.20;;;;;;;10.47;100.00;98021.94;5024445;28;20425;-74
2022/12/31 08:22:03;;;;;;;5.47;1.25;;;;;;;10.40;100.00;98036.59;5026247;28;20040;-74
2022/12/31 08:25:20;;;;;;;2.67;0.90;;;;;;;10.87;100.00;98041.66;5026823;28;20033;-73
2022/12/31 08:28:19;;;;;;;4.97;1.35;;;;;;;10.77;100.00;98041.69;5012175;28;20050;-73
2022/12/31 08:31:02;;;;;;;2.67;1.08;;;;;;;10.77;100.00;98031.00;5027891;28;20042;-72
2022/12/31 08:33:37;;;;;;;4.72;1.20;;;;;;;10.73;100.00;98053.94;5025518;28;20037;-73
2022/12/31 08:36:48;;;;;;;1.95;1.20;;;;;;;10.76;100.00;98048.88;5026685;28;20033;-75
2022/12/31 08:39:28;;;;;;;0.80;0.80;;;;;;;10.74;100.00;98044.88;4997122;28;20033;-72
2022/12/31 08:41:56;;;;;;;3.85;1.48;;;;;;;10.72;100.00;98047.81;5025799;28;20490;-72
2022/12/31 08:44:26;;;;;;;1.20;1.10;;;;;;;10.75;100.00;98033.09;5027871;28;20060;-75
2022/12/31 08:47:02;;;;;;;1.98;1.13;;;;;;;10.78;100.00;98040.59;5044195;28;20489;-73
2022/12/31 08:49:28;;;;;;;;;;;;;;;10.76;100.00;98043.53;5024464;28;20087;-75
2022/12/31 08:51:54;;;;;;;1.30;1.20;;;;;;;10.82;100.00;98031.78;5044588;28;19917;-74
2022/12/31 08:54:20;;;;;;;6.75;1.50;;;;;;;10.78;100.00;98049.41;5029275;28;20496;-72
2022/12/31 08:57:06;;;;;;;1.50;1.20;;;;;;;10.85;100.00;98041.94;5027002;28;20431;-72
2022/12/31 08:59:44;;;;;;;3.15;1.33;;;;;;;10.91;100.00;98056.06;5030097;28;20025;-72
2022/12/31 09:02:33;;;;;;;2.78;1.38;;;;;;;10.90;100.00;98043.78;5028496;28;20116;-74
2022/12/31 09:05:18;;;;;;;3.00;0.90;;;;;;;10.93;100.00;98052.06;5027513;28;20033;-72
2022/12/31 09:08:13;;;;;;;5.60;1.58;;;;;;;10.89;99.98;98053.66;5030325;28;20028;-73
2022/12/31 09:11:12;;;;;;;3.75;1.23;;;;;;;11.00;100.00;98065.13;5026671;28;20026;-74
2022/12/31 09:13:46;;;;;;;3.60;1.50;;;;;;;11.07;99.55;98068.31;5032465;28;20105;-74
2022/12/31 09:16:21;;;;;;;1.95;1.25;;;;;;;11.02;99.90;98058.44;5026262;28;20530;-73
2022/12/31 09:18:46;;;;;;;1.60;1.47;;;;;;;11.49;98.46;98060.69;5029255;28;20045;-75
2022/12/31 09:21:14;;;;;;;4.03;2.17;;;;;;;11.32;98.34;98062.91;5029231;28;20068;-75
2022/12/31 09:23:40;;;;;;;3.95;1.33;;;;;;;11.14;99.32;98066.94;5039371;28;20056;-75
2022/12/31 09:26:32;;;;;;;1.33;1.17;;;;;;;11.10;99.33;98067.75;5029350;28;20057;-74
2022/12/31 09:29:16;;;;;;;4.55;2.03;;;;;;;11.12;99.58;98069.09;5027513;28;20041;-73
2022/12/31 09:31:54;;;;;;;1.67;1.50;;;;;;;11.10;99.18;98094.47;5029236;28;20569;-74
2022/12/31 09:34:45;;;;;;;2.35;1.05;;;;;;;11.12;98.95;98081.63;5031075;28;20025;-73
2022/12/31 09:37:18;;;;;;;1.60;1.38;;;;;;;11.14;99.01;98079.50;5027029;28;20418;-73
2022/12/31 09:40:19;;;;;;;2.47;1.33;;;;;;;11.09;98.25;98079.53;5026331;28;20032;-74
2022/12/31 09:42:58;;;;;;;1.80;1.40;;;;;;;11.16;98.61;98080.84;5019086;28;20424;-74
2022/12/31 09:45:53;;;;;;;2.05;1.52;;;;;;;11.08;98.82;98077.91;5029165;28;20632;-76
2022/12/31 09:48:51;;;;;;;4.03;1.85;;;;;;;11.13;98.79;98083.25;5030726;28;20057;-74
2022/12/31 09:51:43;;;;;;;1.55;1.40;;;;;;;11.16;98.83;98080.84;5028722;28;20025;-74
2022/12/31 09:54:18;;;;;;;2.40;1.40;;;;;;;11.15;98.63;98081.09;5029568;28;20112;-75
2022/12/31 09:57:02;;;;;;;1.40;1.10;;;;;;;11.17;98.57;98073.63;5028737;28;20119;-73
2022/12/31 09:59:53;;;;;;;1.50;1.40;;;;;;;11.13;98.47;98081.41;5029361;28;20071;-75
2022/12/31 10:03:12;;;;;;;2.15;1.50;;;;;;;11.19;98.22;98074.97;5030782;28;20052;-73
2022/12/31 10:05:56;;;;;;;2.72;1.75;;;;;;;11.27;98.21;98076.25;4985771;28;20037;-73
2022/12/31 10:08:34;;;;;;;8.30;2.20;;;;;;;11.23;97.57;98072.53;5027471;28;20034;-75
2022/12/31 10:11:05;;;;;;;2.28;1.40;;;;;;;11.17;98.02;98076.28;5025880;28;20071;-75
2022/12/31 10:13:55;;;;;;;3.53;1.55;;;;;;;11.26;97.75;98096.84;5029314;28;20025;-77
2022/12/31 10:16:55;;;;;;;2.30;1.30;;;;;;;11.22;97.47;98095.00;5025612;28;20481;-73
2022/12/31 10:20:05;;;;;;;2.53;1.50;;;;;;;11.39;97.03;98094.66;5029041;28;20018;-73
2022/12/31 10:22:39;;;;;;;1.58;1.48;;;;;;;11.37;97.25;98088.81;5026502;28;20017;-76
2022/12/31 10:25:22;;;;;;;3.40;1.30;;;;;;;11.47;96.64;98088.75;5029852;28;20026;-73
2022/12/31 10:27:59;;;;;;;2.45;1.38;;;;;;;11.39;96.83;98086.66;5028940;28;20025;-74
2022/12/31 10:30:29;;;;;;;1.58;1.48;;;;;;;11.38;97.17;98091.19;5029504;28;20049;-73
2022/12/31 10:33:38;;;;;;;2.75;1.15;;;;;;;11.45;96.64;98093.56;5028784;28;20037;-75
2022/12/31 10:36:19;;;;;;;1.65;1.55;;;;;;;11.38;96.59;98104.56;5026876;28;20029;-74
2022/12/31 10:39:15;;;;;;;3.05;1.30;;;;;;;11.48;96.69;98119.75;5026376;28;20040;-75
2022/12/31 10:41:55;;;;;;;5.25;2.00;;;;;;;11.55;96.31;98090.88;5027492;28;20083;-77
2022/12/31 10:44:27;;;;;;;3.20;1.45;;;;;;;11.64;96.47;98097.28;5020117;28;20056;-73
2022/12/31 10:47:36;;;;;;;2.47;1.30;;;;;;;11.62;96.25;98104.78;5028567;28;20036;-74
2022/12/31 10:50:29;;;;;;;2.72;1.60;;;;;;;11.82;95.58;98113.53;5029275;28;20524;-75
2022/12/31 10:53:25;;;;;;;2.80;1.80;;;;;;;11.79;95.72;98110.59;5028688;28;20040;-73
2022/12/31 10:56:22;;;;;;;1.50;1.40;;;;;;;11.70;95.61;98121.06;5029335;28;20091;-75
2022/12/31 10:59:18;;;;;;;5.82;1.73;;;;;;;11.69;95.85;98127.47;5002549;28;20044;-73
2022/12/31 11:02:14;;;;;;;2.38;1.50;;;;;;;11.70;95.69;98113.06;5022377;28;20029;-75
2022/12/31 11:05:17;;;;;;;2.13;1.23;;;;;;;11.66;95.80;98125.34;5027860;28;20548;-73
2022/12/31 11:07:58;;;;;;;4.70;1.73;;;;;;;11.57;96.06;98159.03;5023761;28;20708;-73
2022/12/31 11:10:41;;;;;;;9.00;1.38;;;;;;;11.66;96.55;98144.03;5027023;28;20029;-74
2022/12/31 11:13:40;;;;;;;5.07;1.65;;;;;;;11.56;96.83;98154.75;5028466;28;20029;-73
2022/12/31 11:16:36;;;;;;;2.90;1.45;;;;;;;11.53;98.10;98146.50;5018920;28;20033;-74
2022/12/31 11:19:28;;;;;;;1.65;1.33;;;;;;;11.52;98.37;98142.19;5008253;28;20048;-74
2022/12/31 11:22:16;;;;;;;2.35;1.70;;;;;;;11.51;98.19;98145.97;5020830;28;20037;-75
2022/12/31 11:24:59;;;;;;;2.10;1.60;;;;;;;11.51;98.38;98149.41;5023540;28;20053;-77
2022/12/31 11:27:49;;;;;;;4.18;1.55;;;;;;;11.55;98.24;98141.66;5025248;28;20165;-74
2022/12/31 11:30:24;;;;;;;3.13;1.67;;;;;;;11.52;97.64;98144.88;5023718;28;20052;-75
2022/12/31 11:32:52;;;;;;;1.58;1.45;;;;;;;11.52;97.61;98137.66;5026433;28;20022;-75
2022/12/31 11:35:26;;;;;;;1.40;1.30;;;;;;;11.56;97.04;98130.69;5021552;28;20051;-74
2022/12/31 11:38:00;;;;;;;10.63;1.95;;;;;;;11.61;97.19;98132.56;5020619;28;20045;-74
2022/12/31 11:40:53;;;;;;;2.08;1.75;;;;;;;11.60;96.83;98139.00;5018569;28;20029;-73
2022/12/31 11:43:27;;;;;;;4.40;1.58;;;;;;;11.56;96.92;98143.25;5025261;28;20505;-73
2022/12/31 11:46:13;;;;;;;4.00;2.17;;;;;;;11.62;96.48;98132.28;5021057;28;20115;-73
2022/12/31 11:49:01;;;;;;;1.52;1.42;;;;;;;11.68;96.29;98125.09;5026293;28;20393;-75
2022/12/31 11:51:59;;;;;;;4.93;1.92;;;;;;;11.78;96.01;98141.88;5021956;28;20402;-75
2022/12/31 11:54:46;;;;;;;2.33;2.00;;;;;;;11.70;96.12;98134.44;5022581;28;20028;-75
2022/12/31 11:57:22;;;;;;;2.22;1.80;;;;;;;11.74;95.52;98135.50;5022670;28;20492;-74
2022/12/31 11:59:47;;;;;;;;;;;;;;;11.81;95.35;98124.50;5024243;28;20518;-74
2022/12/31 12:02:26;;;;;;;1.57;1.47;;;;;;;11.82;95.39;98124.22;5029102;28;19933;-75
2022/12/31 12:04:54;;;;;;;5.75;1.58;;;;;;;11.84;95.18;98122.06;5023089;28;20033;-75
2022/12/31 12:07:20;;;;;;;9.85;5.18;;;;;;;11.84;95.24;98137.31;5024637;28;20029;-74
2022/12/31 12:09:46;;;;;;;11.73;7.20;;;;;;;11.89;94.55;98130.06;5018596;28;20055;-75
2022/12/31 12:12:12;;;;;;;5.60;5.00;;;;;;;11.89;95.03;98138.09;5025428;28;20750;-74
2022/12/31 12:14:39;;;;;;;5.32;3.47;;;;;;;11.86;94.50;98137.84;5024945;28;20043;-76
2022/12/31 12:17:08;;;;;;;3.33;2.90;;;;;;;11.96;94.17;98137.81;5021932;28;20033;-75
2022/12/31 12:19:40;;;;;;;3.30;2.83;;;;;;;11.84;94.56;98129.28;5022075;28;20025;-74
2022/12/31 12:22:19;;;;;;;3.78;2.25;;;;;;;11.95;93.85;98130.84;5026217;28;20397;-75